createdAt,value
2023-02-14T00:08:05.948Z,102385.34
2023-02-14T00:18:11.038Z,102379.13
2023-02-14T00:28:14.632Z,102376.59
2023-02-14T00:38:19.730Z,102375.22
2023-02-14T00:48:23.382Z,102378.34
2023-02-14T00:58:28.692Z,102377.84
2023-02-14T01:08:32.469Z,102376.53
2023-02-14T01:18:38.196Z,102377.47
2023-02-14T01:28:42.475Z,102368.22
2023-02-14T01:38:48.317Z,102368.38
2023-02-14T01:48:55.571Z,102369.31
2023-02-14T01:59:04.409Z,102373.09
2023-02-14T02:09:14.303Z,102375.31
2023-02-14T02:20:15.088Z,102370.31
2023-02-14T02:31:28.155Z,102356.31
2023-02-14T02:41:49.658Z,102350.47
2023-02-14T02:52:15.544Z,102354.34
2023-02-14T03:02:24.630Z,102354.34
2023-02-14T03:13:10.152Z,102361.22
2023-02-14T03:23:22.652Z,102362.50
2023-02-14T03:33:33.388Z,102352.56
2023-02-14T03:43:44.760Z,102360.63
2023-02-14T03:53:54.138Z,102357.22
2023-02-14T04:04:00.559Z,102370.66
2023-02-14T04:14:04.340Z,102372.72
2023-02-14T04:24:09.429Z,102383.34
2023-02-14T04:34:13.020Z,102392.97
2023-02-14T04:44:17.987Z,102388.38
2023-02-14T04:54:21.595Z,102387.09
2023-02-14T05:04:26.941Z,102392.91
2023-02-14T05:14:30.597Z,102394.31
2023-02-14T05:24:35.873Z,102396.81
2023-02-14T05:34:39.515Z,102398.09
2023-02-14T05:44:44.599Z,102397.16
2023-02-14T05:54:48.295Z,102397.91
2023-02-14T06:04:53.565Z,102403.56
2023-02-14T06:14:57.223Z,102394.94
2023-02-14T06:25:02.202Z,102385.56
2023-02-14T06:35:06.545Z,102381.75
2023-02-14T06:45:12.562Z,102392.22
2023-02-14T06:55:16.516Z,102382.31
2023-02-14T07:05:22.317Z,102376.50
2023-02-14T07:15:26.342Z,102389.13
2023-02-14T07:25:36.897Z,102386.25
2023-02-14T07:35:43.001Z,102385.28
2023-02-14T07:45:48.748Z,102390.00
2023-02-14T07:55:53.158Z,102388.06
2023-02-14T08:05:58.146Z,102385.56
2023-02-14T08:16:09.436Z,102378.50
2023-02-14T08:26:14.640Z,102373.22
2023-02-14T08:36:18.363Z,102382.72
2023-02-14T08:46:24.664Z,102369.47
2023-02-14T08:56:28.358Z,102373.34
2023-02-14T09:06:33.380Z,102372.44
2023-02-14T09:16:37.051Z,102363.28
2023-02-14T09:26:43.167Z,102353.69
2023-02-14T09:37:06.424Z,102358.09
2023-02-14T09:47:22.634Z,102367.25
2023-02-14T09:57:37.443Z,102360.94
2023-02-14T10:07:59.125Z,102362.84
2023-02-14T10:18:13.399Z,102359.78
2023-02-14T10:28:26.217Z,102359.78
2023-02-14T10:38:41.065Z,102368.31
2023-02-14T10:48:58.206Z,102349.88
2023-02-14T10:59:23.084Z,102337.94
2023-02-14T11:09:28.446Z,102322.41
2023-02-14T11:19:37.440Z,102309.56
2023-02-14T11:29:52.544Z,102300.81
2023-02-14T11:40:00.346Z,102283.78
2023-02-14T11:50:10.938Z,102274.03
2023-02-14T12:00:18.059Z,102262.00
2023-02-14T12:10:30.031Z,102252.09
2023-02-14T12:20:43.900Z,102243.78
2023-02-14T12:30:50.718Z,102230.75
2023-02-14T12:41:08.412Z,102213.25
2023-02-14T12:51:22.999Z,102198.59
2023-02-14T13:02:47.514Z,102188.56
2023-02-14T13:13:03.242Z,102161.06
2023-02-14T13:23:13.589Z,102159.47
2023-02-14T13:33:30.131Z,102134.59
2023-02-14T13:43:54.962Z,102130.56
2023-02-14T13:54:00.152Z,102120.44
2023-02-14T14:04:09.550Z,102118.75
2023-02-14T14:14:37.445Z,102096.75
2023-02-14T14:24:44.274Z,102097.63
2023-02-14T14:34:53.356Z,102087.25
2023-02-14T14:45:01.825Z,102091.94
2023-02-14T14:55:09.756Z,102070.47
2023-02-14T15:05:26.519Z,102053.22
2023-02-14T15:15:32.160Z,102049.94
2023-02-14T15:25:39.044Z,102046.94
2023-02-14T15:35:44.811Z,102044.53
2023-02-14T15:45:51.445Z,102057.81
2023-02-14T15:56:03.817Z,102056.50
2023-02-14T16:06:07.711Z,102062.91
2023-02-14T16:16:15.496Z,102055.50
2023-02-14T16:26:19.553Z,102070.47
2023-02-14T16:36:31.922Z,102073.28
2023-02-14T16:46:37.352Z,102076.59
2023-02-14T16:56:52.783Z,102091.50
2023-02-14T17:06:58.316Z,102083.84
2023-02-14T17:17:05.738Z,102095.38
2023-02-14T17:27:10.115Z,102090.78
2023-02-14T17:37:15.100Z,102105.47
2023-02-14T17:47:19.045Z,102116.59
2023-02-14T17:57:24.486Z,102120.75
2023-02-14T18:07:31.052Z,102113.59
2023-02-14T18:17:36.428Z,102105.25
2023-02-14T18:27:40.233Z,102110.19
2023-02-14T18:37:45.275Z,102098.97
2023-02-14T18:47:49.058Z,102091.53
2023-02-14T18:57:54.562Z,102072.28
2023-02-14T19:08:00.417Z,102074.59
2023-02-14T19:18:07.805Z,102056.22
2023-02-14T19:28:12.131Z,102059.00
2023-02-14T19:38:18.063Z,102056.50
2023-02-14T19:48:21.956Z,102050.34
2023-02-14T19:58:28.056Z,102045.03
2023-02-14T20:08:31.987Z,102043.56
2023-02-14T20:18:37.266Z,102040.03
2023-02-14T20:28:40.972Z,102040.31
2023-02-14T20:38:47.764Z,102042.41
2023-02-14T20:48:53.171Z,102033.25
2023-02-14T20:59:01.133Z,102016.78
2023-02-14T21:09:05.517Z,102012.94
2023-02-14T21:19:10.724Z,102012.09
2023-02-14T21:29:14.852Z,102000.91
2023-02-14T21:39:25.616Z,101991.19
2023-02-14T21:49:47.071Z,101985.59
2023-02-14T21:59:52.044Z,101981.03
2023-02-14T22:09:55.667Z,101976.19
2023-02-14T22:20:00.609Z,101962.94
2023-02-14T22:30:04.458Z,101972.38
2023-02-14T22:40:10.808Z,101959.56
2023-02-14T22:50:14.502Z,101946.75
2023-02-14T23:00:20.779Z,101944.53
2023-02-14T23:10:24.399Z,101947.38
2023-02-14T23:20:47.659Z,101958.41
2023-02-14T23:30:51.244Z,101962.97
2023-02-14T23:41:13.946Z,101959.69
2023-02-14T23:51:17.548Z,101956.63
